Date,TemperatureHighF,TemperatureAvgF,TemperatureLowF,DewpointHighF,DewpointAvgF,DewpointLowF,HumidityHigh,HumidityAvg,HumidityLow,PressureMaxIn,PressureMinIn,WindSpeedMaxMPH,WindSpeedAvgMPH,GustSpeedMaxMPH,PrecipitationSumIn
2013-1-1,26,17,9,19,12,5,92,81,69,0.00,40.00,17,12,21,0.00
2013-1-2,30,27,24,26,24,21,96,88,78,0.00,40.00,25,20,32,0.00
2013-1-3,26,20,17,21,15,9,93,79,63,0.00,40.00,19,12,25,0.00
2013-1-4,32,23,15,17,11,6,71,60,50,0.00,40.00,19,12,24,0.00
2013-1-5,30,21,15,21,14,7,85,72,37,0.00,40.00,35,20,49,0.00
2013-1-6,39,26,17,26,18,12,84,71,55,0.00,40.00,23,14,26,0.00
2013-1-7,40,31,25,27,21,17,83,66,57,0.00,40.00,14,10,17,0.00
2013-1-8,40,32,22,32,26,19,89,77,68,0.00,40.00,27,17,31,0.00
2013-1-9,45,34,23,33,25,17,84,71,56,0.00,40.00,24,14,30,0.00
2013-1-10,48,40,35,37,30,22,96,67,49,0.00,40.00,36,25,44,0.00
2013-1-11,37,22,11,36,21,6,99,92,85,0.00,40.00,31,22,41,0.00
2013-1-12,10,6,2,6,1,-7,85,78,72,0.00,40.00,32,23,42,0.00
2013-1-13,16,7,0,8,0,-7,83,73,61,0.00,40.00,19,12,23,0.00
2013-1-14,19,8,-3,6,0,-8,82,70,57,0.00,40.00,14,9,17,0.00
2013-1-15,35,18,5,32,7,-6,100,65,46,0.00,40.00,24,13,30,0.00
2013-1-16,42,37,30,33,29,25,92,74,62,0.00,40.00,29,20,38,0.00
2013-1-17,43,33,25,32,28,24,98,82,64,0.00,40.00,13,9,15,0.00
2013-1-18,51,40,34,29,25,21,68,56,40,0.00,40.00,20,14,30,0.00
2013-1-19,43,30,8,29,20,2,76,65,55,0.00,40.00,27,18,39,0.00
2013-1-20,17,9,-3,9,1,-13,81,72,59,0.00,40.00,22,13,30,0.00
2013-1-21,7,3,-2,-1,-7,-14,72,62,52,0.00,40.00,17,10,22,0.00
2013-1-22,22,10,5,13,5,0,87,79,67,0.00,40.00,16,9,20,0.00
2013-1-23,17,11,1,13,5,-5,86,76,61,0.00,40.00,17,11,28,0.00
2013-1-24,25,10,-2,14,2,-7,78,71,54,0.00,40.00,30,17,40,0.00
2013-1-25,37,27,16,24,20,12,92,74,56,0.00,40.00,18,12,22,0.00
2013-1-26,37,21,9,29,16,5,90,80,56,0.00,40.00,18,11,23,0.00
2013-1-27,38,28,19,25,22,17,91,80,59,0.00,40.00,8,6,11,0.00
2013-1-28,30,29,25,30,28,22,100,96,84,0.00,40.00,15,10,23,0.00
2013-1-29,30,24,16,30,23,14,100,95,90,0.00,40.00,21,13,32,0.10
2013-1-30,17,6,0,15,2,-5,90,82,77,0.00,40.00,27,14,38,0.02
2013-1-31,0,-6,-10,-5,-13,-17,78,70,66,0.00,40.00,26,15,37,0.00
2013-2-1,33,15,0,31,11,-5,98,83,77,0.00,40.00,18,12,25,0.02
2013-2-2,40,31,25,31,27,23,99,86,66,0.00,40.00,30,14,41,0.09
2013-2-3,46,32,16,36,26,10,97,80,62,0.00,40.00,16,10,21,0.01
2013-2-4,37,24,11,29,20,8,93,87,74,0.00,40.00,19,10,24,0.00
2013-2-5,40,35,27,29,27,25,94,73,60,0.00,40.00,20,14,33,0.00
2013-2-6,42,35,27,33,28,23,95,77,64,0.00,40.00,19,14,24,0.00
2013-2-7,33,26,22,28,25,21,98,95,80,0.00,40.00,15,6,16,0.00
2013-2-8,48,32,23,33,27,22,96,83,54,0.00,40.00,29,15,35,0.00
2013-2-9,29,26,24,26,25,23,98,96,85,0.00,40.00,16,9,21,0.00
2013-2-10,29,25,22,28,24,20,97,95,93,0.00,40.00,21,17,28,0.00
2013-2-11,26,21,15,20,16,12,93,83,72,0.00,40.00,22,15,27,0.01
2013-2-12,40,29,19,28,19,12,76,68,60,0.00,40.00,17,13,22,0.01
2013-2-13,46,36,28,32,26,20,76,70,54,0.00,40.00,26,16,38,0.00
2013-2-14,35,28,19,29,21,14,87,76,67,0.00,40.00,41,20,55,0.00
2013-2-15,26,21,14,18,15,10,90,77,58,0.00,40.00,23,12,30,0.00
2013-2-16,46,30,16,33,25,12,93,80,61,0.00,40.00,17,11,23,0.00
2013-2-17,50,35,24,34,29,23,96,78,49,0.00,40.00,22,13,34,0.00
2013-2-18,34,24,13,29,16,5,84,72,57,0.00,40.00,37,26,49,0.00
2013-2-19,15,6,0,5,-2,-6,80,68,47,0.00,40.00,21,12,29,0.00
2013-2-20,20,10,-1,14,1,-7,86,68,54,0.00,40.00,25,20,31,0.00
2013-2-21,22,17,14,15,13,11,90,84,73,0.00,40.00,18,13,25,0.00
2013-2-22,26,16,8,18,11,4,88,82,70,0.00,40.00,11,8,13,0.03
2013-2-23,34,22,8,25,17,5,92,82,64,0.00,40.00,11,8,13,0.01
2013-2-24,37,27,16,33,24,14,95,89,80,0.00,40.00,16,8,22,0.01
2013-2-25,41,30,21,26,22,19,92,75,44,0.00,40.00,12,9,14,0.01
2013-2-26,30,22,15,25,19,13,96,90,83,0.00,40.00,14,8,19,0.00
2013-2-27,31,28,21,28,24,19,97,86,76,0.00,40.00,22,16,27,0.00
2013-2-28,31,26,20,23,22,18,94,85,68,0.00,40.00,13,9,20,0.00
2013-3-1,26,22,19,24,20,17,95,93,92,0.00,40.00,13,5,15,0.00
2013-3-2,53,35,20,36,28,18,93,77,52,0.00,40.00,15,11,20,0.00
2013-3-3,45,36,30,38,33,30,100,88,75,0.00,40.00,19,14,26,0.00
2013-3-4,36,29,19,31,22,11,100,77,41,0.00,40.00,39,25,52,0.00
2013-3-5,27,20,15,14,12,10,84,73,56,0.00,40.00,39,21,52,0.00
2013-3-6,35,22,11,22,16,9,90,78,53,0.00,40.00,26,17,35,0.00
2013-3-7,54,34,23,29,25,20,96,71,38,0.00,40.00,31,17,39,0.00
2013-3-8,34,27,22,30,27,21,100,97,84,0.00,40.00,19,11,24,0.00
2013-3-9,31,28,24,30,27,17,100,97,78,0.00,40.00,28,17,42,0.00
2013-3-10,31,22,16,17,14,12,86,72,47,0.00,40.00,24,18,36,0.00
2013-3-11,49,29,14,26,15,9,85,60,29,0.00,40.00,35,15,52,0.00
2013-3-12,35,26,19,17,11,2,73,54,27,0.00,40.00,33,22,42,0.00
2013-3-13,50,31,13,32,21,10,90,69,44,0.00,40.00,21,14,25,0.00
2013-3-14,71,52,38,39,33,29,78,51,22,0.00,40.00,16,12,22,0.00
2013-3-15,51,35,25,37,29,24,100,79,52,0.00,40.00,18,10,25,0.00
2013-3-16,28,22,14,24,15,9,91,75,54,0.00,40.00,24,11,32,0.00
2013-3-17,37,25,16,34,22,13,93,87,80,0.00,40.00,37,25,46,0.00
2013-3-18,32,21,9,20,5,-1,79,52,29,0.00,40.00,38,26,50,0.00
2013-3-19,38,23,12,18,8,4,81,55,26,0.00,40.00,28,15,42,0.00
2013-3-20,37,20,7,10,6,1,76,57,29,0.00,40.00,18,9,26,0.00
2013-3-21,30,21,13,21,13,5,88,72,61,0.00,40.00,24,20,32,0.00
2013-3-22,29,25,22,26,23,21,98,92,82,0.00,40.00,17,11,22,0.00
2013-3-23,26,23,18,26,17,9,100,80,61,0.00,40.00,23,16,31,0.01
2013-3-24,24,17,9,21,12,5,94,79,70,0.00,40.00,21,17,30,0.01
2013-3-25,27,19,11,17,12,7,90,75,53,0.00,40.00,20,13,28,0.00
2013-3-26,40,24,9,26,17,6,88,73,53,0.00,40.00,25,16,32,0.00
2013-3-27,51,31,16,26,21,14,95,72,32,0.00,40.00,16,10,20,0.00
2013-3-28,63,53,41,43,36,31,71,55,36,0.00,40.00,16,12,23,0.06
2013-3-29,70,52,35,38,32,28,75,51,23,0.00,40.00,23,11,35,0.02
2013-3-30,61,49,35,38,31,22,93,55,24,0.00,40.00,21,14,36,0.00
2013-3-31,41,33,26,30,25,13,98,75,32,0.00,40.00,17,12,34,0.00
2013-4-1,40,28,20,24,18,15,96,68,41,0.00,40.00,10,6,13,0.00
2013-4-2,54,37,22,24,19,14,80,52,27,0.00,40.00,18,11,23,0.00
2013-4-3,72,47,24,33,25,19,85,51,18,0.00,40.00,24,17,42,0.00
2013-4-4,50,39,28,31,22,14,77,53,24,0.00,40.00,19,13,29,0.00
2013-4-5,66,44,27,34,28,22,85,57,29,0.00,40.00,24,18,32,0.00
2013-4-6,66,50,35,48,36,30,99,62,33,0.00,40.00,26,17,39,0.01
2013-4-7,55,40,30,41,35,29,100,87,57,0.00,40.00,17,11,21,0.01
2013-4-8,42,35,23,42,35,20,100,100,99,0.00,40.00,25,17,35,0.11
2013-4-9,21,18,14,20,16,12,99,93,88,0.00,40.00,25,17,37,0.01
2013-4-10,27,23,19,27,23,18,100,98,95,0.00,40.00,24,18,59,0.02
2013-4-11,29,26,22,29,26,22,100,100,100,0.00,40.00,19,15,23,0.02
2013-4-12,32,28,23,32,27,23,100,100,98,0.00,40.00,17,10,21,0.01
2013-4-13,33,29,23,33,29,23,100,100,96,0.00,40.00,30,16,38,0.01
2013-4-14,36,32,26,36,31,23,100,95,80,0.00,40.00,31,22,40,0.56
2013-4-15,36,31,25,30,26,23,93,84,67,0.00,40.00,32,21,41,0.08
2013-4-16,43,31,22,29,25,20,100,81,53,0.00,40.00,15,9,18,0.00
2013-4-17,30,28,26,29,27,26,100,99,93,0.00,40.00,26,15,35,0.05
2013-4-18,35,28,23,26,22,19,100,80,53,0.00,40.00,32,24,41,0.05
2013-4-19,41,31,23,22,20,17,79,64,46,0.00,40.00,19,14,27,0.00
2013-4-20,30,27,22,30,24,16,100,90,74,0.00,40.00,27,19,34,0.00
2013-4-21,48,39,29,40,34,27,100,84,55,0.00,40.00,23,16,31,0.04
2013-4-22,33,28,22,30,27,18,100,95,88,0.00,40.00,25,17,32,0.01
2013-4-23,39,28,16,25,20,13,91,73,47,0.00,40.00,16,12,22,0.01
2013-4-24,45,36,26,36,24,19,88,63,35,0.00,40.00,31,18,48,0.00
2013-4-25,72,49,25,33,24,18,81,46,13,0.00,40.00,26,13,35,0.00
2013-4-26,73,60,42,29,25,21,52,29,15,0.00,40.00,16,9,22,0.00
2013-4-27,83,66,47,32,28,23,55,29,12,0.00,40.00,20,13,25,0.00
2013-4-28,70,63,50,36,32,23,48,33,18,0.00,40.00,27,16,40,0.00
2013-4-29,78,58,38,37,31,24,60,39,19,0.00,40.00,21,14,34,0.00
2013-4-30,60,52,44,43,28,16,84,45,18,0.00,40.00,38,22,49,0.00
2013-5-1,48,40,32,24,17,12,65,42,24,0.00,40.00,28,17,38,0.00
2013-5-2,57,45,34,24,16,10,59,36,16,0.00,40.00,14,8,29,0.00
2013-5-3,55,41,29,25,17,4,71,41,13,0.00,40.00,14,11,24,0.00
2013-5-4,58,42,26,27,20,15,81,45,20,0.00,40.00,18,13,32,0.00
2013-5-5,62,48,35,32,23,18,56,40,22,0.00,40.00,14,8,19,0.00
2013-5-6,71,55,38,37,31,25,94,48,18,0.00,40.00,12,8,16,0.00
2013-5-7,62,54,47,49,41,29,76,60,36,0.00,40.00,30,12,40,0.04
2013-5-8,69,59,48,52,47,42,95,66,42,0.00,40.00,23,8,32,0.01
2013-5-9,68,54,38,47,38,25,94,58,30,0.00,40.00,18,13,32,0.01
2013-5-10,77,60,46,45,33,21,71,37,21,0.00,40.00,23,10,43,0.00
2013-5-11,57,48,35,28,19,10,60,36,15,0.00,40.00,25,14,34,0.00
2013-5-12,71,53,31,35,22,12,54,32,20,0.00,40.00,17,12,23,0.00
2013-5-13,93,73,51,44,39,30,57,33,16,0.00,40.00,24,14,33,0.00
2013-5-14,83,73,61,47,39,29,49,31,16,0.00,40.00,35,20,48,0.00
2013-5-15,80,65,54,47,41,38,69,45,24,0.00,40.00,14,9,19,0.00
2013-5-16,73,58,54,56,27,-100,82,60,36,0.00,40.00,30,15,44,0.00
2013-5-17,80,63,53,60,52,-100,100,79,40,0.00,40.00,28,9,37,0.19
2013-5-18,79,68,59,66,60,53,93,75,57,0.00,40.00,25,12,37,0.36
2013-5-19,68,60,53,60,56,50,100,87,65,0.00,40.00,24,14,45,1.48
2013-5-20,56,53,50,56,53,49,100,98,91,0.00,40.00,26,18,36,0.30
2013-5-21,49,46,45,49,46,45,100,100,98,0.00,40.00,30,25,43,0.77
2013-5-22,56,49,45,51,47,45,100,93,76,0.00,40.00,20,15,27,0.13
2013-5-23,66,56,47,50,46,44,98,72,46,0.00,40.00,22,12,32,0.00
2013-5-24,73,60,48,61,51,41,80,71,59,0.00,40.00,34,21,44,0.00
2013-5-25,81,68,57,62,59,57,100,76,49,0.00,40.00,25,14,35,0.00
2013-5-26,64,59,53,62,57,53,100,95,85,0.00,40.00,30,19,38,0.03
2013-5-27,76,62,54,61,57,54,100,85,54,0.00,40.00,19,12,51,0.83
2013-5-28,75,63,53,58,54,50,100,77,46,0.00,40.00,23,11,39,1.04
2013-5-29,67,62,56,65,60,55,100,97,89,0.00,40.00,21,11,30,0.69
2013-5-30,71,63,55,63,57,48,100,81,49,0.00,40.00,27,14,38,0.78
2013-5-31,58,55,52,58,54,49,100,96,82,0.00,40.00,30,24,42,1.33
2013-6-1,62,52,47,53,47,41,100,84,53,0.00,40.00,32,23,44,0.20
2013-6-2,65,56,46,49,45,40,83,67,51,0.00,40.00,17,10,23,0.03
2013-6-3,80,62,50,61,50,44,85,66,47,0.00,40.00,34,22,48,0.01
2013-6-4,66,58,50,52,46,41,89,65,50,0.00,40.00,27,20,38,0.01
2013-6-5,61,55,50,50,47,43,92,76,62,0.00,40.00,23,16,33,0.00
2013-6-6,69,59,52,52,48,43,98,70,41,0.00,40.00,12,8,21,0.00
2013-6-7,75,62,49,53,49,45,92,65,42,0.00,40.00,20,10,28,0.00
2013-6-8,65,60,55,62,56,50,100,88,62,0.00,40.00,27,16,37,0.17
2013-6-9,74,63,53,56,53,49,100,74,41,0.00,40.00,26,14,35,0.04
2013-6-10,87,71,54,64,58,54,100,68,40,0.00,40.00,24,14,32,0.00
2013-6-11,82,71,62,67,62,54,100,74,55,0.00,40.00,26,19,35,0.00
2013-6-12,70,60,50,56,54,50,100,80,55,0.00,40.00,26,16,58,0.70
2013-6-13,74,64,53,58,55,51,93,71,56,0.00,40.00,22,11,31,0.00
2013-6-14,80,69,59,65,59,53,87,70,56,0.00,40.00,24,16,34,0.00
2013-6-15,79,68,57,55,49,43,78,54,30,0.00,40.00,14,8,22,0.00
2013-6-16,81,66,56,59,53,46,81,63,45,0.00,40.00,16,8,35,0.00
2013-6-17,77,66,58,57,54,52,83,66,46,0.00,40.00,15,10,44,0.20
2013-6-18,79,68,57,61,57,52,92,70,52,0.00,40.00,13,10,44,0.20
2013-6-19,85,71,59,66,61,57,95,73,48,0.00,40.00,23,16,32,0.01
2013-6-20,80,72,66,69,64,60,88,76,67,0.00,40.00,26,15,36,0.01
2013-6-22,79,73,57,68,65,56,100,77,66,0.00,40.00,27,10,44,0.23
2013-6-23,77,66,55,60,56,52,100,74,44,0.00,40.00,20,12,32,0.24
2013-6-24,81,70,59,69,62,56,94,77,56,0.00,40.00,25,16,34,0.00
2013-6-25,87,76,67,73,69,62,100,82,48,0.00,40.00,17,11,24,0.00
2013-6-26,71,67,63,62,60,57,83,78,74,0.00,40.00,13,10,17,0.00
2013-6-27,86,80,73,62,60,57,57,52,43,0.00,40.00,13,11,18,0.02
2013-6-28,82,70,57,58,55,51,81,62,40,0.00,40.00,18,12,30,0.00
2013-6-29,75,67,61,55,54,53,74,64,49,0.00,40.00,12,10,15,0.00
2013-6-30,67,67,67,53,53,53,61,61,61,0.00,40.00,4,4,4,0.00
2013-7-1,78,69,63,54,50,47,73,53,37,0.00,40.00,10,8,17,0.07
2013-7-2,83,73,60,53,48,46,64,44,29,0.00,40.00,12,8,17,0.00
2013-7-3,87,73,59,55,51,47,75,50,25,0.00,40.00,17,14,26,0.00
2013-7-4,90,81,64,57,54,52,64,42,31,0.00,40.00,15,11,20,0.00
2013-7-5,79,75,68,65,63,61,77,67,58,0.00,40.00,14,10,17,0.00
2013-7-6,90,77,70,66,63,62,76,64,46,0.00,40.00,17,13,22,0.00
2013-7-7,75,70,68,67,66,66,93,87,77,0.00,40.00,12,9,14,0.00
2013-7-8,79,76,74,73,71,67,97,84,70,0.00,40.00,15,12,20,0.65
2013-7-9,82,72,60,72,61,58,100,72,47,0.00,40.00,24,13,46,0.26
2013-7-10,82,70,59,65,57,-100,96,69,52,0.00,40.00,15,10,21,0.00
2013-7-11,97,79,64,68,65,60,97,67,30,0.00,40.00,22,18,30,0.00
2013-7-12,93,81,72,70,66,64,76,62,44,0.00,40.00,25,17,35,0.00
2013-7-13,90,80,69,74,70,65,98,74,49,0.00,40.00,13,8,16,0.02
2013-7-14,77,72,68,75,70,65,100,94,85,0.00,40.00,17,12,32,1.50
2013-7-15,84,74,69,73,68,62,100,83,49,0.00,40.00,20,13,28,1.38
2013-7-16,85,81,70,65,64,63,81,58,50,0.00,40.00,21,16,29,0.00
2013-7-17,89,78,66,66,63,61,88,64,39,0.00,40.00,19,14,27,0.00
2013-7-18,96,83,70,71,65,60,74,57,38,0.00,40.00,17,11,22,0.00
2013-7-19,86,75,63,68,57,52,76,56,34,0.00,40.00,18,10,23,0.00
2013-7-20,81,70,63,66,60,-100,97,74,60,0.00,40.00,18,12,26,0.58
2013-7-21,84,71,57,67,61,54,96,72,53,0.00,40.00,16,8,23,0.30
2013-7-22,83,73,65,65,60,56,85,64,43,0.00,40.00,22,11,30,0.00
2013-7-23,77,67,57,61,58,55,95,75,54,0.00,40.00,13,10,24,0.00
2013-7-24,85,71,59,65,58,54,90,66,35,0.00,40.00,13,8,22,0.00
2013-7-25,84,70,62,62,59,54,90,69,43,0.00,40.00,16,10,24,0.19
2013-7-26,71,61,52,52,48,44,84,65,44,0.00,40.00,15,11,26,0.01
2013-7-27,72,62,50,49,45,41,77,56,34,0.00,40.00,11,6,14,0.00
2013-7-28,76,63,48,54,48,42,87,61,45,0.00,40.00,19,13,32,0.00
2013-7-29,73,65,60,63,58,52,97,77,67,0.00,40.00,17,13,23,0.00
2013-7-30,75,65,59,68,62,59,100,91,72,0.00,40.00,20,10,52,0.01
2013-7-31,78,64,60,64,61,59,100,92,53,0.00,40.00,9,6,18,0.12
2013-8-1,71,68,66,59,58,57,72,70,67,0.00,40.00,8,7,16,0.00
2013-8-2,69,65,60,62,60,57,96,82,73,0.00,40.00,15,10,24,1.12
2013-8-3,74,65,57,59,57,52,98,78,60,0.00,40.00,18,12,24,0.01
2013-8-4,76,66,58,66,60,52,94,81,69,0.00,40.00,26,15,36,0.78
2013-8-5,83,71,65,68,65,58,100,83,44,0.00,40.00,15,7,21,0.03
2013-8-6,80,70,61,63,59,52,99,71,40,0.00,40.00,20,14,44,0.79
2013-8-7,79,69,59,66,61,54,93,77,61,0.00,40.00,10,7,23,0.16
2013-8-8,79,68,60,65,60,55,89,75,52,0.00,40.00,19,8,32,0.07
2013-8-9,76,67,60,63,59,55,92,76,55,0.00,40.00,10,7,14,0.00
2013-8-10,74,66,58,64,61,56,95,84,68,0.00,40.00,14,9,18,0.01
2013-8-11,76,67,61,64,62,60,100,85,61,0.00,40.00,12,5,17,0.03
2013-8-12,80,71,63,65,62,60,94,75,52,0.00,40.00,12,6,17,0.01
2013-8-13,76,67,62,65,58,-100,93,78,61,0.00,40.00,15,11,20,0.34
2013-8-14,72,64,59,64,61,57,100,89,69,0.00,40.00,14,11,19,0.20
2013-8-15,69,58,57,61,46,-100,100,86,72,0.00,40.00,11,9,16,0.01
2013-8-16,76,64,57,62,55,-100,100,83,61,0.00,40.00,15,10,19,0.00
2013-8-17,82,71,60,69,65,59,100,82,62,0.00,40.00,20,17,27,0.00
2013-8-18,85,73,62,71,67,62,100,84,58,0.00,40.00,19,13,25,0.00
2013-8-19,95,72,65,71,50,-100,97,69,27,0.00,40.00,14,9,19,0.00
2013-8-20,90,76,65,74,65,-100,94,73,41,0.00,40.00,19,12,25,0.00
2013-8-21,82,75,67,68,64,60,91,69,54,0.00,40.00,19,10,24,0.02
2013-8-22,81,72,60,65,61,54,93,71,52,0.00,40.00,13,11,23,0.02
2013-8-23,82,72,66,70,68,66,100,88,65,0.00,40.00,17,13,24,0.00
2013-8-24,98,82,69,70,66,59,100,66,29,0.00,40.00,18,14,25,0.00
2013-8-25,95,81,72,73,65,59,78,60,37,0.00,40.00,18,9,22,0.00
2013-8-26,98,84,70,71,64,57,84,55,30,0.00,40.00,15,11,20,0.00
2013-8-27,92,78,69,73,69,62,100,75,46,0.00,40.00,12,8,19,0.00
2013-8-28,80,75,72,71,68,64,89,78,66,0.00,40.00,10,8,24,0.38
2013-8-29,95,80,68,72,66,61,97,65,33,0.00,40.00,15,10,21,0.07
2013-8-30,87,76,67,69,66,62,95,72,49,0.00,40.00,12,7,16,0.00
2013-8-31,90,74,65,64,58,47,86,60,42,0.00,40.00,21,11,32,0.00
2013-9-1,79,67,56,55,51,45,75,57,40,0.00,40.00,14,10,25,0.00
2013-9-2,84,69,54,59,55,51,91,65,40,0.00,40.00,16,11,24,0.00
2013-9-3,82,71,60,65,61,57,91,72,48,0.00,40.00,16,12,20,0.23
2013-9-4,85,75,67,66,63,60,79,67,51,0.00,40.00,15,11,21,0.04
2013-9-5,88,75,64,68,64,62,97,70,47,0.00,40.00,14,10,21,0.04
2013-9-6,95,78,66,67,64,61,86,65,34,0.00,40.00,17,10,22,0.00
2013-9-7,91,79,71,69,66,60,89,66,40,0.00,40.00,17,11,24,0.03
2013-9-8,84,75,65,71,68,63,100,80,65,0.00,40.00,18,12,26,0.15
2013-9-9,77,71,65,72,63,58,96,79,54,0.00,40.00,18,11,40,0.03
2013-9-10,80,71,64,61,56,52,86,62,40,0.00,40.00,12,8,18,0.00
2013-9-11,87,72,61,56,52,48,76,52,27,0.00,40.00,11,6,15,0.00
2013-9-12,79,68,60,50,44,39,63,43,27,0.00,40.00,11,8,21,0.00
2013-9-13,79,65,48,47,43,37,82,49,23,0.00,40.00,18,13,27,0.00
2013-9-14,86,68,59,60,54,46,98,64,39,0.00,40.00,22,16,32,0.00
2013-9-15,67,59,50,59,54,48,100,84,56,0.00,40.00,15,12,25,0.01
2013-9-16,69,57,45,55,48,45,100,77,49,0.00,40.00,24,16,35,0.01
2013-9-17,79,66,57,60,56,50,85,70,51,0.00,40.00,22,18,31,0.01
2013-9-18,66,63,62,63,61,55,99,93,75,0.00,40.00,18,15,35,0.00
2013-9-19,66,59,49,56,46,39,82,62,38,0.00,40.00,23,18,32,0.00
2013-9-20,71,54,42,41,38,32,86,58,24,0.00,40.00,14,11,21,0.00
2013-9-21,81,62,44,51,43,34,71,51,32,0.00,40.00,22,16,31,0.00
2013-9-22,90,71,57,57,52,47,84,54,30,0.00,40.00,28,21,39,0.00
2013-9-23,77,64,55,58,51,47,100,65,37,0.00,40.00,26,17,39,0.69
2013-9-24,75,61,49,55,48,37,100,69,25,0.00,40.00,13,8,22,0.69
2013-9-25,79,64,50,53,49,42,93,60,33,0.00,40.00,31,21,41,0.00
2013-9-26,72,62,54,54,52,44,91,70,45,0.00,40.00,22,15,31,0.00
2013-9-27,56,51,45,46,43,39,96,73,64,0.00,40.00,24,16,37,0.63
2013-9-28,67,53,40,44,39,32,98,66,27,0.00,40.00,19,12,28,0.66
2013-9-29,82,61,45,41,37,33,71,45,18,0.00,40.00,26,12,37,0.01
2013-9-30,87,68,54,45,40,36,63,38,17,0.00,40.00,29,14,47,0.00
2013-10-1,66,58,53,36,34,33,49,42,33,0.00,40.00,12,9,14,0.00
2013-10-2,71,59,49,46,40,35,78,51,36,0.00,40.00,21,14,31,0.00
2013-10-3,49,47,44,48,46,42,100,95,79,0.00,40.00,28,17,36,0.34
2013-10-4,45,42,38,45,42,37,100,99,98,0.00,40.00,33,25,55,2.47
2013-10-5,41,38,36,40,38,36,100,97,90,0.00,40.00,39,29,53,1.39
2013-10-6,61,46,32,39,35,27,91,68,38,0.00,40.00,26,16,40,0.04
2013-10-7,72,55,41,46,41,36,84,62,34,0.00,40.00,15,11,20,0.00
2013-10-8,70,60,52,48,43,38,73,55,39,0.00,40.00,19,11,24,0.00
2013-10-9,69,56,45,48,44,40,96,69,45,0.00,40.00,20,12,27,0.00
2013-10-10,66,59,48,55,48,42,81,69,55,0.00,40.00,14,7,18,0.00
2013-10-11,66,55,46,56,46,36,94,73,63,0.00,40.00,33,22,48,0.16
2013-10-12,56,48,40,36,30,25,78,52,31,0.00,40.00,21,15,32,0.01
2013-10-13,63,50,39,36,31,24,64,48,32,0.00,40.00,21,13,28,0.00
2013-10-14,54,46,43,46,44,36,100,91,52,0.00,40.00,25,18,36,1.34
2013-10-15,45,42,35,43,40,34,100,91,81,0.00,40.00,28,19,42,0.85
2013-10-16,57,46,35,40,34,30,90,66,36,0.00,40.00,13,10,19,0.01
2013-10-17,44,39,34,38,33,26,94,78,61,0.00,40.00,24,16,34,0.12
2013-10-18,45,37,30,34,30,25,82,75,58,0.00,40.00,19,12,31,0.01
2013-10-19,58,48,36,37,34,30,78,59,42,0.00,40.00,14,10,22,0.01
2013-10-20,51,44,33,39,34,28,82,70,61,0.00,40.00,28,16,39,0.00
2013-10-21,43,38,31,39,34,27,97,87,78,0.00,40.00,11,7,15,0.11
2013-10-22,44,40,35,42,36,31,98,86,75,0.00,40.00,19,12,29,0.09
2013-10-23,43,38,34,39,35,27,96,90,82,0.00,40.00,15,8,24,0.07
2013-10-24,47,36,26,29,25,19,90,66,37,0.00,40.00,10,7,17,0.02
2013-10-25,68,45,28,42,33,22,92,66,35,0.00,40.00,15,11,24,0.00
2013-10-26,51,41,32,36,26,21,79,57,33,0.00,40.00,17,11,25,0.00
2013-10-27,62,46,35,37,30,22,71,55,39,0.00,40.00,24,14,33,0.00
2013-10-28,34,30,27,27,23,-100,93,80,71,0.00,40.00,22,18,33,0.00
2013-10-29,30,29,27,29,27,25,95,94,93,0.00,40.00,15,8,21,0.00
2013-10-30,34,32,30,34,31,29,98,97,95,0.00,40.00,7,3,8,0.05
2013-10-31,50,41,32,38,34,30,99,77,54,0.00,40.00,26,17,38,0.06
2013-11-1,48,42,36,37,33,27,84,70,57,0.00,40.00,31,19,45,0.01
2013-11-2,58,42,31,30,26,24,79,56,27,0.00,40.00,20,11,26,0.00
2013-11-3,56,46,39,35,31,26,81,57,42,0.00,40.00,26,16,35,0.00
2013-11-4,46,40,34,33,25,20,78,55,37,0.00,40.00,20,13,28,0.00
2013-11-5,33,30,25,28,25,20,95,83,58,0.00,40.00,14,9,17,0.00
2013-11-6,37,28,20,32,24,17,92,87,77,0.00,40.00,14,8,17,0.09
2013-11-7,48,36,25,28,24,19,85,65,44,0.00,40.00,14,11,20,0.01
2013-11-8,52,44,31,37,32,26,86,64,48,0.00,40.00,33,21,45,0.00
2013-11-9,48,41,32,31,26,21,72,57,38,0.00,40.00,24,16,34,0.00
2013-11-10,54,41,26,31,27,20,79,60,42,0.00,40.00,23,12,33,0.00
2013-11-11,31,20,14,25,8,-2,84,62,43,0.00,40.00,19,11,33,0.00
2013-11-12,49,28,9,29,17,1,80,65,46,0.00,40.00,16,12,22,0.00
2013-11-13,61,47,33,35,32,27,81,58,36,0.00,40.00,16,11,20,0.00
2013-11-14,56,48,40,38,31,25,75,52,34,0.00,40.00,16,12,24,0.00
2013-11-15,60,44,30,37,31,24,85,62,37,0.00,40.00,27,13,40,0.00
2013-11-16,47,40,32,34,31,27,89,71,58,0.00,40.00,14,10,20,0.00
2013-11-17,42,35,28,33,27,22,88,73,62,0.00,40.00,23,12,31,0.00
2013-11-18,51,37,26,27,23,19,76,59,31,0.00,40.00,15,10,18,0.00
2013-11-19,63,45,26,29,26,21,86,52,24,0.00,40.00,20,13,30,0.00
2013-11-20,48,34,21,30,24,10,83,67,48,0.00,40.00,27,16,42,0.00
2013-11-21,18,14,9,10,3,-4,80,63,50,0.00,40.00,25,17,36,0.00
2013-11-22,33,18,3,11,5,-6,72,59,36,0.00,40.00,17,13,27,0.00
2013-11-23,23,14,7,8,3,-3,77,62,44,0.00,40.00,16,11,21,0.00
2013-11-24,49,29,11,23,16,6,81,60,34,0.00,40.00,26,17,36,0.00
2013-11-25,39,32,25,23,20,16,75,61,45,0.00,40.00,21,15,29,0.00
2013-11-26,28,21,12,19,8,2,78,59,34,0.00,40.00,19,12,33,0.00
2013-11-27,43,26,10,24,15,4,79,65,41,0.00,40.00,19,15,26,0.00
2013-11-28,27,24,17,21,17,14,87,75,65,0.00,40.00,25,9,35,0.00
2013-11-29,49,32,19,27,21,16,87,68,40,0.00,40.00,23,14,31,0.00
2013-11-30,42,37,32,27,25,23,72,62,54,0.00,40.00,14,9,17,0.00
2013-12-1,48,35,28,29,26,23,84,70,45,0.00,40.00,12,10,16,0.00
2013-12-2,53,40,30,34,29,26,95,69,43,0.00,40.00,15,12,22,0.00
2013-12-3,29,20,12,28,18,7,97,89,83,0.00,40.00,20,15,29,0.00
2013-12-4,11,8,1,7,3,-7,82,80,75,0.00,40.00,32,25,44,0.00
2013-12-5,2,-3,-13,-7,-12,-23,74,67,62,0.00,40.00,29,20,40,0.00
2013-12-6,-4,-11,-14,-15,-20,-23,64,62,58,0.00,40.00,18,12,25,0.00
2013-12-7,-3,-10,-16,-11,-18,-25,72,65,60,0.00,40.00,13,8,16,0.00
2013-12-8,8,-2,-7,1,-9,-16,75,70,64,0.00,40.00,25,14,32,0.00
2013-12-9,23,5,-12,14,-6,-21,70,62,55,0.00,40.00,35,18,49,0.00
2013-12-10,26,15,1,16,5,-11,80,66,54,0.00,40.00,29,18,42,0.00
2013-12-11,20,7,-7,8,-4,-17,71,61,55,0.00,40.00,18,13,21,0.00
2013-12-12,35,27,17,20,13,6,62,55,48,0.00,40.00,13,11,18,0.00
2013-12-13,23,12,5,16,6,0,87,80,69,0.00,40.00,15,11,18,0.00
2013-12-14,22,13,3,16,8,-3,85,79,71,0.00,40.00,14,6,19,0.00
2013-12-15,25,17,13,20,13,9,86,82,71,0.00,40.00,14,10,18,0.00
2013-12-16,38,34,27,30,28,23,88,80,66,0.00,40.00,18,11,30,0.00
2013-12-17,37,28,20,23,19,14,91,69,45,0.00,40.00,20,13,25,0.00
2013-12-18,49,40,27,28,25,20,86,57,43,0.00,40.00,17,11,26,0.00
2013-12-19,27,9,1,24,4,-5,91,80,75,0.00,40.00,21,17,29,0.00
2013-12-20,9,2,-5,2,-4,-12,80,74,70,0.00,40.00,15,10,21,0.00
2013-12-21,5,2,-2,0,-4,-9,78,75,72,0.00,40.00,14,9,23,0.00
2013-12-22,3,-1,-12,-4,-8,-20,76,73,66,0.00,40.00,15,9,20,0.00
2013-12-23,0,-8,-16,-8,-16,-25,71,67,62,0.00,40.00,23,9,28,0.00
2013-12-24,29,17,0,24,13,-7,88,82,72,0.00,40.00,26,17,32,0.00
2013-12-25,32,28,24,24,21,17,81,74,66,0.00,40.00,26,16,35,0.00
2013-12-26,38,31,26,27,21,16,83,67,58,0.00,40.00,18,13,27,0.00
2013-12-27,44,37,28,30,27,22,80,66,57,0.00,40.00,19,12,24,0.00
2013-12-28,40,24,0,29,15,-8,81,70,65,0.00,40.00,42,24,55,0.00
2013-12-29,12,4,-3,2,-5,-11,72,64,47,0.00,40.00,22,12,33,0.00
2013-12-30,30,17,10,25,11,2,92,77,67,0.00,40.00,29,14,41,0.00
2013-12-31,12,8,0,6,2,-7,81,76,70,0.00,40.00,19,16,25,0.00
2014-1-1,10,2,-3,2,-4,-10,78,74,70,0.00,40.00,13,8,19,0.00
2014-1-2,13,5,1,7,-1,-6,83,75,71,0.00,40.00,22,12,30,0.00